• Join FlightAware (Why Join?)
  • Login
  • US Flag 
04:18AM EDT


 

Airport Tracker/Info


-or-


 

Live Flight TrackerFlight Track Log ✈ SWA2955 ✈ 21-Apr-2013 ✈ KMCO - KISP

Flight Track Log - Related Links

Times and Time Zones

All times are in EDT time to prevent confusion due to time zone crossing. See the SWA2955 flight status page for this flight to view local times or setup timezone preferences in your user account.

Time Position Orientation Groundspeed Altitude Reporting Facility
EDT Latitude Longitude Course Direction KTS MPH feet Rate Location/Type
01:41PM 28.4500 -81.3333 16° North 170 196 800  Level Orlando TRACON
01:42PM 28.5000 -81.3167 16° North 201 231 3,000 2,640 Climbing Orlando TRACON
01:43PM 28.5667 -81.3167 360° North 221 254 6,500 3,180 Climbing Orlando TRACON
01:45PM 28.6872 -81.3378 351° North 229 264 12,700 2,700 Climbing Jacksonville Center
01:46PM 28.7606 -81.3603 345° North 250 288 14,800 2,400 Climbing Jacksonville Center
01:47PM 28.8483 -81.3614 359° North 281 323 17,600 2,400 Climbing Jacksonville Center
01:48PM 28.9381 -81.3717 354° North 310 357 19,600 1,620 Climbing Jacksonville Center
01:49PM 29.0467 -81.3819 355° North 347 399 20,900 1,980 Climbing Jacksonville Center
01:50PM 29.1597 -81.3922 355° North 385 443 23,600 2,280 Climbing Jacksonville Center
01:51PM 29.2767 -81.4094 353° North 409 471 25,500 1,980 Climbing Jacksonville Center
01:52PM 29.4025 -81.4528 343° North 420 483 27,600 1,980 Climbing Jacksonville Center
01:53PM 29.5239 -81.4844 347° North 425 489 29,500 2,040 Climbing Jacksonville Center
01:54PM 29.6433 -81.5161 347° North 436 502 31,700 1,920 Climbing Jacksonville Center
01:55PM 29.7625 -81.5481 347° North 436 502 33,400 1,800 Climbing Jacksonville Center
01:56PM 29.8819 -81.5775 348° North 431 496 35,400 1,920 Climbing Jacksonville Center
01:57PM 29.9947 -81.5975 351° North 431 496 37,300 1,380 Climbing Jacksonville Center
01:58PM 30.1119 -81.6175 352° North 431 496 38,200 840 Climbing Jacksonville Center
01:59PM 30.2269 -81.6378 351° North 426 490 39,000 360 Climbing Jacksonville Center
02:00PM 30.3442 -81.6603 351° North 426 490 39,000  Level Jacksonville Center
02:01PM 30.4672 -81.6706 356° North 431 496 39,000  Level Jacksonville Center
02:02PM 30.5900 -81.6039 25° Northeast 442 509 39,000  Level Jacksonville Center
02:03PM 30.7081 -81.5347 27° Northeast 459 528 39,000  Level Jacksonville Center
02:04PM 30.8306 -81.4653 26° Northeast 471 542 39,000  Level Jacksonville Center
02:05PM 30.9489 -81.3956 27° Northeast 476 548 39,000  Level Jacksonville Center
02:06PM 31.0692 -81.3258 26° Northeast 476 548 39,000  Level Jacksonville Center
02:07PM 31.1914 -81.2581 25° Northeast 476 548 39,000  Level Jacksonville Center
02:08PM 31.3094 -81.1881 27° Northeast 481 554 39,000  Level Jacksonville Center
02:09PM 31.4272 -81.1031 32° Northeast 486 559 39,000  Level Jacksonville Center
02:10PM 31.5328 -81.0281 31° Northeast 486 559 39,000  Level Jacksonville Center
02:11PM 31.6608 -80.9350 32° Northeast 492 566 39,000  Level Jacksonville Center
02:12PM 31.7683 -80.8619 30° Northeast 492 566 39,000  Level Jacksonville Center
02:13PM 31.8961 -80.7686 32° Northeast 492 566 39,000  Level Jacksonville Center
02:14PM 32.0136 -80.6850 31° Northeast 492 566 39,000  Level Jacksonville Center
02:15PM 32.1189 -80.6089 31° Northeast 491 565 39,000  Level Jacksonville Center
02:16PM 32.2322 -80.5250 32° Northeast 491 565 39,000  Level Jacksonville Center
02:17PM 32.3475 -80.4408 32° Northeast 491 565 39,000  Level Jacksonville Center
02:18PM 32.4625 -80.3542 32° Northeast 491 565 39,000  Level Jacksonville Center
02:19PM 32.5797 -80.2694 31° Northeast 491 565 39,000  Level Jacksonville Center
02:20PM 32.6931 -80.1872 31° Northeast 491 565 39,000  Level Jacksonville Center
02:21PM 32.8181 -80.0919 33° Northeast 491 565 39,000  Level Jacksonville Center
02:22PM 32.9331 -79.9969 35° Northeast 491 565 39,000  Level Jacksonville Center
02:23PM 33.0411 -79.8942 39° Northeast 491 565 39,000  Level Jacksonville Center
02:24PM 33.1472 -79.7964 38° Northeast 496 571 39,000  Level Jacksonville Center
02:25PM 33.2531 -79.6883 40° Northeast 491 565 39,000  Level Jacksonville Center
02:26PM 33.3592 -79.5878 38° Northeast 486 559 39,000  Level Jacksonville Center
02:27PM 33.4650 -79.4867 39° Northeast 486 559 39,000  Level Jacksonville Center
02:28PM 33.5706 -79.3778 41° Northeast 486 559 39,000  Level Jacksonville Center
02:29PM 33.6761 -79.2764 39° Northeast 486 559 39,000  Level Jacksonville Center
02:31PM 33.8900 -79.0639 39° Northeast 477 549 39,000  Level Washington Center
02:32PM 33.9950 -78.9581 40° Northeast 490 564 39,000  Level Washington Center
02:33PM 34.1067 -78.8522 38° Northeast 496 571 39,000  Level Washington Center
02:34PM 34.2222 -78.7364 40° Northeast 496 571 39,000  Level Washington Center
02:35PM 34.3317 -78.6250 40° Northeast 496 571 39,000  Level Washington Center
02:36PM 34.4364 -78.5206 39° Northeast 491 565 39,000  Level Washington Center
02:37PM 34.5261 -78.4306 40° Northeast 491 565 39,000  Level Washington Center
02:38PM 34.6567 -78.2986 40° Northeast 498 573 39,000  Level Washington Center
02:39PM 34.7633 -78.1883 40° Northeast 498 573 39,000  Level Washington Center
02:40PM 34.8617 -78.0828 41° Northeast 503 579 39,000  Level Washington Center
02:41PM 34.9703 -77.9694 41° Northeast 508 585 39,000  Level Washington Center
02:42PM 35.0808 -77.8586 39° Northeast 508 585 39,000  Level Washington Center
02:43PM 35.1914 -77.7472 39° Northeast 516 594 39,000  Level Washington Center
02:44PM 35.3000 -77.6306 41° Northeast 516 594 39,000  Level Washington Center
02:45PM 35.4103 -77.5211 39° Northeast 516 594 39,000  Level Washington Center
02:46PM 35.5286 -77.4219 34° Northeast 516 594 39,000  Level Washington Center
02:47PM 35.6428 -77.3197 36° Northeast 510 587 39,000  Level Washington Center
02:48PM 35.7611 -77.2225 34° Northeast 510 587 39,000  Level Washington Center
02:49PM 35.8856 -77.1072 37° Northeast 505 581 39,000  Level Washington Center
02:50PM 36.0017 -77.0042 36° Northeast 505 581 39,000  Level Washington Center
02:51PM 36.1175 -76.9008 36° Northeast 505 581 39,000  Level Washington Center
02:52PM 36.2314 -76.7969 36° Northeast 510 587 39,000  Level Washington Center
02:53PM 36.3514 -76.6906 36° Northeast 515 593 39,000  Level Washington Center
02:54PM 36.4669 -76.5889 35° Northeast 515 593 39,000  Level Washington Center
02:55PM 36.5847 -76.4817 36° Northeast 515 593 39,000  Level Washington Center
02:56PM 36.7042 -76.3769 35° Northeast 520 598 39,000  Level Washington Center
02:57PM 36.8069 -76.2794 37° Northeast 526 605 39,000  Level Washington Center
02:58PM 36.9286 -76.1792 33° Northeast 521 600 39,000  Level Washington Center
02:59PM 37.0769 -76.1072 21° North 522 601 39,000  Level Washington Center
03:00PM 37.2044 -76.0378 23° Northeast 507 583 39,000  Level Washington Center
03:01PM 37.3319 -75.9681 23° Northeast 501 577 39,000  Level Washington Center
03:02PM 37.4617 -75.9006 22° Northeast 501 577 39,000  Level Washington Center
03:03PM 37.5889 -75.8225 26° Northeast 496 571 39,000  Level Washington Center
03:04PM 37.6850 -75.7492 31° Northeast 496 571 39,000  Level Washington Center
03:05PM 37.8061 -75.6600 30° Northeast 503 579 39,000  Level Washington Center
03:06PM 37.9353 -75.5628 31° Northeast 503 579 39,000  Level Washington Center
03:07PM 38.0564 -75.4678 32° Northeast 503 579 39,000  Level Washington Center
03:08PM 38.1833 -75.3911 25° Northeast 503 579 39,000  Level Washington Center
03:09PM 38.3083 -75.3086 27° Northeast 498 573 39,000  Level Washington Center
03:10PM 38.4353 -75.2233 28° Northeast 492 566 39,000  Level Washington Center
03:11PM 38.5622 -75.1508 24° Northeast 497 572 39,000  Level Washington Center
03:12PM 38.6828 -75.0519 33° Northeast 497 572 39,000  Level Washington Center
03:13PM 38.7925 -74.9392 39° Northeast 502 578 39,000 -540 Level Washington Center
03:14PM 38.9003 -74.8208 40° Northeast 507 583 38,000 -1,560 Descending Washington Center
03:15PM 39.0078 -74.7047 40° Northeast 502 578 35,900 -2,640 Descending Washington Center
03:16PM 39.1194 -74.5831 40° Northeast 509 586 32,800 -3,180 Descending Washington Center
03:17PM 39.2289 -74.4661 40° Northeast 515 593 29,600 -3,180 Descending Washington Center
03:19PM 39.4867 -74.1844 40° Northeast 509 586 22,200 -2,580 Descending New York Center
03:20PM 39.5758 -74.0622 47° Northeast 487 560 20,900 -1,500 Descending New York Center
03:21PM 39.6542 -73.9444 49° Northeast 458 527 19,200 -1,920 Descending New York Center
03:22PM 39.7664 -73.8767 25° Northeast 402 463 17,100 -1,140 Descending New York Center
03:23PM 39.8247 -73.7953 47° Northeast 384 442 17,000 -600 Descending New York Center
03:24PM 39.9006 -73.6850 48° Northeast 371 427 15,900 -1,080 Descending New York Center
03:25PM 39.9717 -73.5878 46° Northeast 366 421 14,900 -1,080 Descending New York Center
03:26PM 40.0472 -73.4797 48° Northeast 366 421 13,800 -960 Descending New York Center
03:27PM 40.1097 -73.3925 47° Northeast 359 413 13,000 -840 Descending New York Center
03:30PM 40.2725 -73.1608 47° Northeast 345 397 11,000 -900 Descending Boston Center
03:31PM 40.3208 -73.0906 48° Northeast 340 391 10,000 -1,140 Descending Boston Center
03:32PM 40.4333 -72.9667 40° Northeast 274 315 8,200 -1,320 Descending New York TRACON
03:33PM 40.5000 -72.9500 11° North 258 297 6,600 -1,620 Descending New York TRACON
03:34PM 40.5667 -72.9333 11° North 249 287 5,000 -1,380 Descending New York TRACON
03:35PM 40.6333 -72.9333 360° North 245 282 4,000 -720 Descending New York TRACON
03:36PM 40.6500 -73.0167 285° West 226 260 3,600 -540 Descending New York TRACON
03:37PM 40.6667 -73.0833 288° West 222 255 3,000 -720 Descending New York TRACON
03:38PM 40.7000 -73.1500 303° West 191 220 2,300 -600 Descending New York TRACON
03:39PM 40.7333 -73.1833 323° Northwest 146 168 1,800 -600 Descending New York TRACON
03:40PM 40.7667 -73.1500 37° Northeast 141 162 1,100 -840 Descending New York TRACON
03:41PM 40.7833 -73.1167 57° Northeast 142 163 300 -900 Descending New York TRACON
03:43PM 40.7952 -73.1002 150° Southeast  Level Estimated